Time;durP1;ratioP1;P1;durP2;ratioP2;P2;SDS_P1;SDS_P2;PMS_P1;PMS_P2;Temp;Humidity;BMP_temperature;BMP_pressure;BME280_temperature;BME280_humidity;BME280_pressure;Samples;Min_cycle;Max_cycle;Signal;HPM_P1;HPM_P2
2022/05/22 00:01:42;;;;;;;12.23;3.33;;;13.00;68.50;;;;;;9185479;19;20047;-72
2022/05/22 00:04:47;;;;;;;8.35;3.42;;;12.90;68.40;;;;;;9185595;19;20086;-73
2022/05/22 00:07:54;;;;;;;8.63;3.85;;;12.90;68.00;;;;;;9182286;19;20006;-71
2022/05/22 00:11:01;;;;;;;9.35;4.07;;;12.90;68.70;;;;;;9184631;19;20021;-73
2022/05/22 00:14:11;;;;;;;8.32;3.75;;;12.90;68.70;;;;;;9182784;19;20090;-72
2022/05/22 00:17:17;;;;;;;8.73;3.70;;;12.80;68.80;;;;;;9185414;19;20010;-72
2022/05/22 00:20:23;;;;;;;14.77;3.53;;;12.80;68.80;;;;;;9181759;19;20019;-72
2022/05/22 00:23:31;;;;;;;6.43;3.08;;;12.80;68.90;;;;;;9179057;19;20014;-72
2022/05/22 00:26:40;;;;;;;5.82;3.60;;;12.70;69.60;;;;;;9182398;19;20487;-72
2022/05/22 00:29:50;;;;;;;5.72;3.00;;;12.70;69.00;;;;;;9181259;19;20007;-72
2022/05/22 00:32:56;;;;;;;10.32;3.83;;;12.60;69.00;;;;;;9183489;19;20477;-72
2022/05/22 00:36:04;;;;;;;11.63;4.38;;;12.70;69.10;;;;;;9182267;19;20641;-72
2022/05/22 00:39:09;;;;;;;11.57;4.07;;;12.70;69.20;;;;;;9180405;19;20019;-72
2022/05/22 00:42:18;;;;;;;12.13;4.32;;;12.70;69.20;;;;;;9182215;19;20044;-72
2022/05/22 00:45:26;;;;;;;9.95;3.70;;;12.60;69.20;;;;;;9180964;19;20351;-72
2022/05/22 00:48:33;;;;;;;12.95;4.43;;;12.60;69.30;;;;;;9182201;19;20018;-73
2022/05/22 00:51:42;;;;;;;9.60;4.18;;;12.60;69.20;;;;;;9182692;19;20035;-71
2022/05/22 00:54:52;;;;;;;7.93;4.10;;;12.50;69.30;;;;;;9181438;19;20011;-72
2022/05/22 00:58:02;;;;;;;9.98;4.43;;;12.50;69.40;;;;;;9181271;19;20010;-70
2022/05/22 01:01:11;;;;;;;5.13;3.88;;;12.50;69.50;;;;;;9178827;19;20041;-71
2022/05/22 01:04:22;;;;;;;10.90;4.47;;;12.50;69.50;;;;;;9182429;19;20634;-72
2022/05/22 01:07:32;;;;;;;20.25;4.07;;;12.40;69.50;;;;;;9180181;19;20048;-72
2022/05/22 01:10:42;;;;;;;5.65;3.50;;;12.40;69.50;;;;;;9180593;19;20025;-72
2022/05/22 01:13:50;;;;;;;9.73;3.83;;;12.40;69.60;;;;;;9180898;19;20014;-72
2022/05/22 01:17:03;;;;;;;6.85;3.70;;;12.30;69.60;;;;;;9182985;19;20018;-72
2022/05/22 01:20:12;;;;;;;9.20;4.20;;;12.30;69.80;;;;;;9179739;19;20006;-71
2022/05/22 01:23:25;;;;;;;10.45;3.95;;;12.30;69.70;;;;;;9174767;19;21356;-73
2022/05/22 01:26:32;;;;;;;15.15;3.45;;;12.20;70.40;;;;;;9178234;19;20021;-72
2022/05/22 01:30:17;;;;;;;11.20;3.67;;;12.20;69.70;;;;;;9178927;19;20015;-73
2022/05/22 01:33:32;;;;;;;13.75;4.05;;;12.20;69.90;;;;;;9180819;19;20014;-72
2022/05/22 01:36:38;;;;;;;9.80;4.07;;;12.10;69.60;;;;;;9180456;19;20018;-72
2022/05/22 01:39:48;;;;;;;9.70;3.75;;;12.10;69.70;;;;;;9178677;19;20018;-73
2022/05/22 01:42:53;;;;;;;5.88;3.70;;;12.10;69.90;;;;;;9182783;19;20014;-72
2022/05/22 01:45:58;;;;;;;7.07;3.03;;;12.10;69.90;;;;;;9188847;19;20013;-72
2022/05/22 01:49:05;;;;;;;6.35;3.47;;;12.00;69.90;;;;;;9188927;19;20010;-73
2022/05/22 01:52:10;;;;;;;3.92;2.58;;;12.00;70.00;;;;;;9189727;19;20007;-72
2022/05/22 01:55:20;;;;;;;5.00;2.85;;;12.00;70.10;;;;;;9188326;19;20507;-72
2022/05/22 01:58:27;;;;;;;7.50;3.05;;;11.90;70.10;;;;;;9191581;19;20022;-72
2022/05/22 02:01:36;;;;;;;7.57;3.20;;;11.90;70.10;;;;;;9185289;19;20007;-72
2022/05/22 02:04:42;;;;;;;6.57;3.40;;;11.80;70.10;;;;;;9188476;19;20022;-72
2022/05/22 02:11:13;;;;;;;7.18;3.47;;;11.80;70.20;;;;;;9188164;19;20011;-72
2022/05/22 02:14:20;;;;;;;4.13;2.78;;;11.70;70.20;;;;;;9187858;19;20093;-73
2022/05/22 02:17:35;;;;;;;6.38;2.70;;;11.70;70.20;;;;;;9187761;19;20014;-72
2022/05/22 02:20:41;;;;;;;6.47;3.50;;;11.70;70.30;;;;;;9183161;19;20594;-73
2022/05/22 02:23:46;;;;;;;5.30;3.17;;;11.60;70.20;;;;;;9189185;19;20048;-71
2022/05/22 02:26:57;;;;;;;10.02;3.22;;;11.60;70.30;;;;;;9188182;19;20014;-73
2022/05/22 02:30:08;;;;;;;7.78;3.85;;;11.60;70.40;;;;;;9187047;19;20018;-73
2022/05/22 02:33:14;;;;;;;6.63;3.50;;;11.50;70.40;;;;;;9187587;19;20348;-72
2022/05/22 02:36:27;;;;;;;8.38;3.38;;;11.50;70.40;;;;;;9186139;19;20055;-72
2022/05/22 02:39:35;;;;;;;8.57;3.78;;;11.50;70.50;;;;;;9186649;19;20086;-72
2022/05/22 02:43:04;;;;;;;12.75;3.40;;;11.50;70.60;;;;;;9187946;19;20029;-72
2022/05/22 02:46:11;;;;;;;7.50;3.50;;;11.50;70.60;;;;;;9188663;19;20016;-71
2022/05/22 02:49:17;;;;;;;7.93;3.72;;;11.40;70.60;;;;;;9186218;19;20051;-71
2022/05/22 02:52:23;;;;;;;7.95;3.05;;;11.40;70.70;;;;;;9186629;19;20117;-72
2022/05/22 02:55:29;;;;;;;5.05;2.42;;;11.30;70.80;;;;;;9186049;19;20050;-71
2022/05/22 02:58:40;;;;;;;5.13;2.83;;;11.30;70.90;;;;;;9186433;19;20034;-72
2022/05/22 03:01:46;;;;;;;4.47;2.38;;;11.30;70.90;;;;;;9182987;19;20014;-72
2022/05/22 03:04:52;;;;;;;12.20;3.47;;;11.30;70.90;;;;;;9186224;19;20107;-72
2022/05/22 03:07:59;;;;;;;6.63;2.65;;;11.20;70.80;;;;;;9184071;19;20014;-73
2022/05/22 03:11:10;;;;;;;5.30;2.10;;;11.20;70.90;;;;;;9186575;19;20010;-73
2022/05/22 03:14:19;;;;;;;4.95;2.40;;;11.10;70.90;;;;;;9186433;19;20019;-72
2022/05/22 03:17:25;;;;;;;4.00;2.00;;;11.10;71.00;;;;;;9185735;19;20019;-73
2022/05/22 03:20:36;;;;;;;5.25;2.47;;;11.10;71.00;;;;;;9181249;19;20010;-71
2022/05/22 03:23:41;;;;;;;6.85;2.50;;;11.10;71.10;;;;;;9185813;19;20017;-72
2022/05/22 03:26:47;;;;;;;6.78;2.10;;;11.10;71.10;;;;;;9185025;19;20018;-72
2022/05/22 03:29:55;;;;;;;6.35;2.40;;;11.10;71.10;;;;;;9185468;19;20471;-72
2022/05/22 03:33:04;;;;;;;4.38;2.22;;;11.00;71.10;;;;;;9184255;19;20014;-72
2022/05/22 03:36:09;;;;;;;4.93;2.45;;;11.00;71.20;;;;;;9185267;19;20014;-72
2022/05/22 03:39:17;;;;;;;4.57;2.58;;;11.00;71.20;;;;;;9186930;19;20343;-71
2022/05/22 03:42:24;;;;;;;5.20;2.50;;;10.90;71.20;;;;;;9182962;19;20010;-72
2022/05/22 03:45:32;;;;;;;5.90;2.67;;;10.90;71.30;;;;;;9184589;19;20014;-71
2022/05/22 03:48:37;;;;;;;8.48;2.30;;;10.90;71.30;;;;;;9186269;19;20017;-72
2022/05/22 03:51:43;;;;;;;7.95;2.65;;;10.90;71.40;;;;;;9184333;19;20494;-72
2022/05/22 03:54:52;;;;;;;4.40;2.60;;;10.90;71.40;;;;;;9184715;19;20015;-72
2022/05/22 03:57:58;;;;;;;6.53;3.17;;;10.90;71.50;;;;;;9183615;19;20387;-72
2022/05/22 04:01:08;;;;;;;3.65;2.63;;;10.90;71.50;;;;;;9181796;19;20093;-73
2022/05/22 04:04:21;;;;;;;9.20;3.28;;;10.80;71.50;;;;;;9183511;19;20329;-73
2022/05/22 04:07:30;;;;;;;9.13;3.67;;;10.80;71.50;;;;;;9181480;19;20014;-71
2022/05/22 04:10:41;;;;;;;12.35;3.20;;;10.80;71.50;;;;;;9184403;19;20026;-73
2022/05/22 04:13:47;;;;;;;5.35;2.95;;;10.80;71.60;;;;;;9183124;19;20006;-72
2022/05/22 04:16:57;;;;;;;3.42;2.72;;;10.80;71.70;;;;;;9184000;19;20014;-72
2022/05/22 04:20:08;;;;;;;5.78;2.63;;;10.80;71.90;;;;;;9182494;19;20021;-72
2022/05/22 04:26:37;;;;;;;8.68;3.03;;;10.80;71.80;;;;;;9182560;19;20025;-72
2022/05/22 04:29:45;;;;;;;9.18;3.03;;;10.80;71.90;;;;;;9181823;19;20026;-72
2022/05/22 04:32:55;;;;;;;6.72;3.90;;;10.80;71.90;;;;;;9183224;19;20032;-72
2022/05/22 04:36:01;;;;;;;5.72;3.47;;;10.80;72.00;;;;;;9183075;19;20014;-72
2022/05/22 04:39:06;;;;;;;11.30;3.88;;;10.80;72.10;;;;;;9182749;19;20074;-73
2022/05/22 04:42:12;;;;;;;7.20;4.40;;;10.80;72.10;;;;;;9181300;19;20022;-72
2022/05/22 04:45:19;;;;;;;9.68;4.43;;;10.90;72.20;;;;;;9182848;19;20015;-72
2022/05/22 04:48:45;;;;;;;14.77;4.30;;;10.90;72.30;;;;;;9181609;19;20014;-71
2022/05/22 04:51:50;;;;;;;9.43;4.28;;;10.90;72.40;;;;;;9182292;19;20438;-72
2022/05/22 04:54:57;;;;;;;9.00;4.60;;;10.90;72.40;;;;;;9181804;19;20356;-72
2022/05/22 04:58:04;;;;;;;8.80;4.65;;;10.90;72.50;;;;;;9182841;19;20014;-72
2022/05/22 05:01:16;;;;;;;11.32;5.50;;;10.90;72.50;;;;;;9180915;19;20077;-73
2022/05/22 05:04:45;;;;;;;10.57;5.57;;;10.90;72.60;;;;;;9181752;19;20018;-73
2022/05/22 05:08:07;;;;;;;15.32;5.70;;;11.00;72.70;;;;;;9180134;19;20007;-73
2022/05/22 05:11:27;;;;;;;8.55;5.70;;;11.10;72.80;;;;;;9182536;19;20356;-72
2022/05/22 05:14:47;;;;;;;8.77;6.25;;;11.10;72.80;;;;;;9181390;19;20011;-72
2022/05/22 05:17:53;;;;;;;14.57;6.18;;;11.10;72.90;;;;;;9187689;19;20479;-73
2022/05/22 05:21:07;;;;;;;11.98;5.22;;;11.10;72.90;;;;;;9186917;19;20017;-73
2022/05/22 05:24:18;;;;;;;9.77;4.80;;;11.20;73.20;;;;;;9190767;19;20025;-71
2022/05/22 05:27:24;;;;;;;13.45;5.50;;;11.30;73.40;;;;;;9190088;19;20481;-72
2022/05/22 05:30:54;;;;;;;12.90;5.72;;;11.30;73.30;;;;;;9190120;19;20010;-72
2022/05/22 05:34:03;;;;;;;16.98;7.10;;;11.30;73.30;;;;;;9189810;19;20017;-73
2022/05/22 05:37:18;;;;;;;19.45;8.65;;;11.40;73.50;;;;;;9190593;19;20006;-72
2022/05/22 05:40:34;;;;;;;15.38;8.05;;;11.50;73.70;;;;;;9190331;19;20022;-74
2022/05/22 05:43:40;;;;;;;12.30;7.43;;;11.60;73.80;;;;;;9191798;19;20025;-72
2022/05/22 05:46:48;;;;;;;15.45;7.53;;;11.70;73.90;;;;;;9189442;19;20025;-73
2022/05/22 05:49:54;;;;;;;17.42;9.88;;;11.80;74.10;;;;;;9190137;19;20038;-73
2022/05/22 05:53:16;;;;;;;20.77;8.73;;;12.00;74.20;;;;;;9189924;19;20023;-73
2022/05/22 05:56:23;;;;;;;16.15;7.50;;;12.10;74.30;;;;;;9189512;19;20044;-74
2022/05/22 05:59:56;;;;;;;18.65;7.82;;;12.30;74.40;;;;;;9189539;19;20006;-72
2022/05/22 06:03:07;;;;;;;18.05;7.03;;;12.50;74.40;;;;;;9186802;19;20011;-72
2022/05/22 06:06:15;;;;;;;19.00;6.22;;;12.70;74.50;;;;;;9188413;19;20022;-74
2022/05/22 06:09:25;;;;;;;13.55;5.72;;;12.90;74.60;;;;;;9188575;19;20014;-74
2022/05/22 06:12:36;;;;;;;13.18;5.65;;;13.20;74.60;;;;;;9190692;19;20482;-73
2022/05/22 06:15:46;;;;;;;17.63;5.63;;;13.50;74.50;;;;;;9187966;19;20018;-73
2022/05/22 06:18:52;;;;;;;17.10;5.43;;;13.70;74.50;;;;;;9188216;19;20044;-74
2022/05/22 06:22:03;;;;;;;17.77;5.05;;;13.90;74.40;;;;;;9184298;19;20045;-72
2022/05/22 06:25:17;;;;;;;15.60;5.15;;;14.20;74.40;;;;;;9187932;19;20019;-73
2022/05/22 06:28:33;;;;;;;14.13;3.50;;;14.40;74.30;;;;;;9185568;19;20015;-72
2022/05/22 06:32:05;;;;;;;16.45;4.30;;;14.60;74.00;;;;;;9189167;19;20027;-73
2022/05/22 06:35:17;;;;;;;17.20;3.78;;;14.90;73.70;;;;;;9188730;19;20015;-72
2022/05/22 06:42:27;;;;;;;14.88;3.50;;;15.40;74.10;;;;;;9186255;19;20391;-72
2022/05/22 06:45:51;;;;;;;11.23;3.90;;;15.60;73.30;;;;;;9186757;19;20503;-73
2022/05/22 06:49:34;;;;;;;11.23;2.88;;;15.90;73.10;;;;;;9187131;19;20034;-73
2022/05/22 06:52:42;;;;;;;13.23;2.97;;;16.10;72.90;;;;;;9188055;19;20025;-73
2022/05/22 06:56:12;;;;;;;10.13;3.30;;;16.30;73.40;;;;;;9188716;19;20399;-72
2022/05/22 06:59:50;;;;;;;10.15;3.13;;;16.60;72.60;;;;;;9183486;19;20022;-72
2022/05/22 07:03:37;;;;;;;13.68;3.67;;;16.80;72.40;;;;;;9182194;19;20448;-72
2022/05/22 07:07:02;;;;;;;16.63;3.40;;;17.10;72.10;;;;;;9181371;19;20018;-72
2022/05/22 07:11:38;;;;;;;11.55;3.17;;;17.30;71.80;;;;;;9185983;19;20022;-71
2022/05/22 07:14:05;;;;;;;12.10;3.25;;;17.50;71.50;;;;;;9183205;19;20497;-71
2022/05/22 07:17:23;;;;;;;13.57;2.88;;;17.80;71.10;;;;;;9185191;19;20394;-71
2022/05/22 07:20:39;;;;;;;13.65;2.70;;;17.90;70.80;;;;;;9182196;19;20959;-74
2022/05/22 07:23:56;;;;;;;13.70;3.30;;;18.10;70.70;;;;;;9184420;19;20025;-69
2022/05/22 07:27:24;;;;;;;17.15;3.45;;;18.30;70.60;;;;;;9187387;19;20006;-70
2022/05/22 07:30:50;;;;;;;9.10;3.22;;;18.50;70.40;;;;;;9183144;19;20014;-71
2022/05/22 07:34:24;;;;;;;13.75;2.58;;;18.70;70.10;;;;;;9183668;19;20401;-71
2022/05/22 07:37:57;;;;;;;11.18;2.55;;;18.90;69.60;;;;;;9185113;19;20021;-70
2022/05/22 07:41:35;;;;;;;11.60;3.30;;;19.10;69.40;;;;;;9185817;19;20039;-73
2022/05/22 07:44:58;;;;;;;11.20;2.80;;;19.30;69.10;;;;;;9186653;19;20015;-72
2022/05/22 07:48:43;;;;;;;12.30;1.98;;;19.50;68.90;;;;;;9184808;19;20066;-71
2022/05/22 07:52:12;;;;;;;14.38;2.25;;;19.60;68.50;;;;;;9185876;19;20006;-71
2022/05/22 07:55:44;;;;;;;11.93;2.95;;;19.80;68.20;;;;;;9186096;19;20352;-71
2022/05/22 07:59:12;;;;;;;15.27;3.30;;;20.00;68.00;;;;;;9187307;19;20007;-70
2022/05/22 08:02:27;;;;;;;10.10;2.63;;;20.20;67.70;;;;;;9184872;19;20020;-70
2022/05/22 08:05:34;;;;;;;13.25;2.63;;;20.30;67.60;;;;;;9186891;19;20019;-71
2022/05/22 08:08:48;;;;;;;8.52;2.33;;;20.50;67.30;;;;;;9182840;19;20014;-72
2022/05/22 08:12:03;;;;;;;11.15;2.28;;;20.60;66.70;;;;;;9185595;19;20011;-70
2022/05/22 08:15:10;;;;;;;10.73;2.15;;;20.80;66.60;;;;;;9185103;19;20002;-72
2022/05/22 08:18:17;;;;;;;7.30;2.40;;;20.90;66.10;;;;;;9185129;19;20006;-73
2022/05/22 08:21:23;;;;;;;8.50;1.85;;;21.10;66.00;;;;;;9182111;19;20010;-72
2022/05/22 08:24:31;;;;;;;13.93;2.85;;;21.30;65.60;;;;;;9183434;19;20010;-70
2022/05/22 08:27:38;;;;;;;10.07;2.47;;;21.40;65.30;;;;;;9184260;19;20033;-72
2022/05/22 08:30:44;;;;;;;10.18;2.22;;;21.50;65.20;;;;;;9185751;19;20011;-74
2022/05/22 08:33:52;;;;;;;11.27;2.38;;;21.60;64.90;;;;;;9183925;19;20018;-71
2022/05/22 08:37:02;;;;;;;8.40;2.10;;;21.80;64.60;;;;;;9186198;19;20014;-71
2022/05/22 08:40:15;;;;;;;7.03;1.85;;;21.90;64.20;;;;;;9183289;19;20011;-73
2022/05/22 08:43:28;;;;;;;5.97;1.40;;;22.00;63.80;;;;;;9182785;19;20011;-71
2022/05/22 08:46:49;;;;;;;16.42;2.65;;;22.10;63.50;;;;;;9185559;19;20017;-70
2022/05/22 08:50:02;;;;;;;8.73;2.25;;;22.30;63.40;;;;;;9183278;19;20397;-71
2022/05/22 08:53:24;;;;;;;11.32;2.38;;;22.40;63.10;;;;;;9182842;19;20101;-71
2022/05/22 08:59:54;;;;;;;;;;;22.70;62.80;;;;;;9182769;19;20362;-72
2022/05/22 09:03:04;;;;;;;9.15;2.10;;;22.80;63.30;;;;;;9179249;19;19930;-70
2022/05/22 09:06:10;;;;;;;14.52;2.47;;;22.90;62.80;;;;;;9181741;19;20021;-71
2022/05/22 09:09:16;;;;;;;6.88;2.00;;;23.00;62.40;;;;;;9183320;19;20111;-74
2022/05/22 09:12:55;;;;;;;9.63;2.03;;;23.10;62.10;;;;;;9183050;19;20015;-72
2022/05/22 09:16:13;;;;;;;10.82;2.40;;;23.20;61.40;;;;;;9184116;19;20034;-74
2022/05/22 09:19:24;;;;;;;12.75;3.08;;;23.30;61.30;;;;;;9183721;19;20007;-74
2022/05/22 09:22:40;;;;;;;10.05;1.85;;;23.40;61.30;;;;;;9178408;19;20018;-77
2022/05/22 09:25:58;;;;;;;9.90;1.67;;;23.50;60.70;;;;;;9181256;19;20467;-74
2022/05/22 09:29:19;;;;;;;11.43;2.75;;;23.60;60.50;;;;;;9182108;19;20107;-75
2022/05/22 09:32:39;;;;;;;11.07;2.08;;;23.70;60.00;;;;;;9182789;19;20010;-75
2022/05/22 09:35:57;;;;;;;7.13;1.83;;;23.80;59.80;;;;;;9179107;19;20487;-75
2022/05/22 09:39:12;;;;;;;8.35;1.83;;;23.90;59.40;;;;;;9179523;19;20021;-74
2022/05/22 09:42:33;;;;;;;6.93;2.13;;;24.00;59.30;;;;;;9180481;19;20014;-73
2022/05/22 09:45:52;;;;;;;7.13;1.83;;;24.00;59.00;;;;;;9179588;19;20009;-74
2022/05/22 09:49:10;;;;;;;6.13;1.80;;;24.00;58.50;;;;;;9180240;19;20019;-73
2022/05/22 09:52:22;;;;;;;12.77;1.95;;;24.00;58.50;;;;;;9181210;19;20011;-76
2022/05/22 09:55:42;;;;;;;9.30;2.20;;;23.90;58.40;;;;;;9180678;19;20002;-78
2022/05/22 09:59:06;;;;;;;7.57;1.80;;;23.90;58.20;;;;;;9177643;19;20029;-74
2022/05/22 10:02:18;;;;;;;10.57;1.73;;;23.80;58.10;;;;;;9178842;19;20385;-76
2022/05/22 10:05:36;;;;;;;13.52;2.60;;;23.70;57.90;;;;;;9182948;19;20021;-74
2022/05/22 10:08:52;;;;;;;8.93;1.85;;;23.70;57.90;;;;;;9183715;19;20018;-76
2022/05/22 10:12:08;;;;;;;12.57;2.42;;;23.70;58.00;;;;;;9184761;19;20241;-71
2022/05/22 10:15:46;;;;;;;8.68;2.03;;;23.70;57.70;;;;;;9185221;19;20029;-72
2022/05/22 10:19:10;;;;;;;8.85;1.55;;;23.70;57.60;;;;;;9185904;19;20011;-72
2022/05/22 10:22:25;;;;;;;7.28;1.67;;;23.70;57.30;;;;;;9181430;19;20022;-70
2022/05/22 10:25:42;;;;;;;9.18;2.03;;;23.70;57.40;;;;;;9185143;19;20021;-70
2022/05/22 10:28:54;;;;;;;10.23;2.60;;;23.70;57.30;;;;;;9188743;19;20015;-70
2022/05/22 10:32:04;;;;;;;6.53;2.35;;;23.80;57.70;;;;;;9187362;19;20019;-71
2022/05/22 10:35:18;;;;;;;16.08;2.33;;;23.90;57.20;;;;;;9187526;19;20025;-70
2022/05/22 10:38:25;;;;;;;10.10;2.03;;;24.00;56.80;;;;;;9189327;19;20352;-70
2022/05/22 10:44:58;;;;;;;8.27;2.03;;;24.20;56.60;;;;;;9186265;19;20015;-70
2022/05/22 10:48:11;;;;;;;8.60;2.00;;;24.30;56.60;;;;;;9187792;19;20018;-71
2022/05/22 10:51:26;;;;;;;17.85;2.05;;;24.40;56.20;;;;;;9183317;19;20090;-70
2022/05/22 10:54:34;;;;;;;7.95;1.90;;;24.50;55.90;;;;;;9185282;19;20013;-70
2022/05/22 10:57:40;;;;;;;5.90;1.45;;;24.60;55.90;;;;;;9185493;19;20029;-71
2022/05/22 11:00:54;;;;;;;9.10;2.15;;;24.70;55.70;;;;;;9183485;19;20107;-70
2022/05/22 11:04:03;;;;;;;;;;;24.70;55.10;;;;;;9183728;19;20332;-70
2022/05/22 11:07:11;;;;;;;7.43;1.55;;;24.80;56.10;;;;;;9186952;19;19914;-70
2022/05/22 11:10:19;;;;;;;7.85;1.45;;;24.80;55.60;;;;;;9187211;19;20543;-70
2022/05/22 11:13:26;;;;;;;6.35;1.50;;;24.90;55.30;;;;;;9187432;19;20012;-70
2022/05/22 11:16:34;;;;;;;7.32;1.83;;;25.00;55.10;;;;;;9187049;19;20022;-69
2022/05/22 11:19:41;;;;;;;9.00;1.80;;;25.10;54.80;;;;;;9188076;19;20014;-70
2022/05/22 11:23:01;;;;;;;8.27;2.03;;;25.20;54.50;;;;;;9182570;19;20006;-70
2022/05/22 11:26:16;;;;;;;7.30;1.77;;;25.20;54.10;;;;;;9183967;19;20014;-70
2022/05/22 11:29:37;;;;;;;6.50;1.60;;;25.30;54.10;;;;;;9187438;19;20026;-70
2022/05/22 11:33:02;;;;;;;10.07;1.42;;;25.30;53.80;;;;;;9186180;19;20471;-69
2022/05/22 11:36:20;;;;;;;9.43;1.50;;;25.40;53.60;;;;;;9187551;19;20480;-69
2022/05/22 11:39:42;;;;;;;8.90;1.67;;;25.30;53.50;;;;;;9186409;19;20018;-70
2022/05/22 11:42:58;;;;;;;5.28;1.30;;;25.20;53.10;;;;;;9186391;19;20489;-70
2022/05/22 11:46:06;;;;;;;6.07;1.70;;;25.20;53.40;;;;;;9184136;19;20013;-70
2022/05/22 11:49:25;;;;;;;11.18;1.60;;;25.20;53.40;;;;;;9187656;19;20019;-69
2022/05/22 11:52:59;;;;;;;5.78;1.33;;;25.10;53.00;;;;;;9185065;19;20021;-70
2022/05/22 11:56:30;;;;;;;7.65;1.80;;;25.00;53.00;;;;;;9186477;19;20010;-70
2022/05/22 11:59:49;;;;;;;12.32;2.20;;;24.90;53.00;;;;;;9183528;19;20060;-70
2022/05/22 12:03:19;;;;;;;6.07;1.50;;;24.80;53.00;;;;;;9186878;19;20014;-70
2022/05/22 12:06:44;;;;;;;6.47;1.50;;;24.70;53.10;;;;;;9184216;19;20355;-70
2022/05/22 12:09:58;;;;;;;8.77;1.67;;;24.60;53.20;;;;;;9184851;19;20372;-70
2022/05/22 12:13:16;;;;;;;6.63;1.55;;;24.50;53.30;;;;;;9184628;19;20022;-70
2022/05/22 12:16:26;;;;;;;8.07;1.58;;;24.50;53.20;;;;;;9184919;19;20474;-70
2022/05/22 12:19:41;;;;;;;5.65;1.55;;;24.50;53.40;;;;;;9186508;19;20018;-70
2022/05/22 12:26:14;;;;;;;7.32;1.55;;;24.60;53.00;;;;;;9180064;19;20467;-70
2022/05/22 12:29:27;;;;;;;9.65;1.40;;;24.70;52.90;;;;;;9183861;19;20014;-70
2022/05/22 12:32:39;;;;;;;5.55;1.30;;;24.80;52.80;;;;;;9183253;19;20425;-69
2022/05/22 12:35:45;;;;;;;4.55;1.40;;;24.90;52.70;;;;;;9183753;19;20010;-69
2022/05/22 12:38:56;;;;;;;12.07;1.67;;;25.00;52.60;;;;;;9183687;19;20018;-70
2022/05/22 12:42:08;;;;;;;7.60;1.88;;;25.10;52.30;;;;;;9185321;19;20086;-69
2022/05/22 12:45:15;;;;;;;6.70;1.40;;;25.20;52.20;;;;;;9182447;19;20085;-68
2022/05/22 12:48:29;;;;;;;6.40;1.40;;;25.20;52.10;;;;;;9185900;19;20035;-68
2022/05/22 12:51:36;;;;;;;6.00;1.67;;;25.20;51.80;;;;;;9183366;19;20027;-69
2022/05/22 12:54:41;;;;;;;5.18;1.70;;;25.20;51.90;;;;;;9185797;19;20470;-69
2022/05/22 12:57:54;;;;;;;7.60;1.65;;;25.30;51.90;;;;;;9181433;19;20367;-70
2022/05/22 13:01:02;;;;;;;5.90;1.50;;;25.20;51.50;;;;;;9184007;19;20471;-69
2022/05/22 13:04:25;;;;;;;5.93;1.48;;;25.20;51.50;;;;;;9183632;19;20014;-70
2022/05/22 13:07:38;;;;;;;5.38;1.60;;;25.20;51.30;;;;;;9182237;19;20011;-69
2022/05/22 13:10:49;;;;;;;7.35;1.33;;;25.20;51.40;;;;;;9181957;19;20477;-70
2022/05/22 13:13:55;;;;;;;5.97;1.60;;;25.20;51.30;;;;;;9183414;19;20043;-69
2022/05/22 13:17:03;;;;;;;6.15;1.67;;;25.20;51.30;;;;;;9184008;19;20007;-70
2022/05/22 13:20:26;;;;;;;7.85;1.73;;;25.10;51.20;;;;;;9182166;19;20369;-71
2022/05/22 13:23:42;;;;;;;6.13;1.42;;;25.10;51.00;;;;;;9181755;19;20010;-70
2022/05/22 13:26:58;;;;;;;6.65;1.63;;;25.20;51.10;;;;;;9180865;19;20127;-70
2022/05/22 13:30:28;;;;;;;5.10;1.60;;;25.20;50.90;;;;;;9183200;19;20356;-70
2022/05/22 13:33:43;;;;;;;6.32;1.45;;;25.20;50.80;;;;;;9183109;19;20042;-69
2022/05/22 13:36:58;;;;;;;11.53;2.00;;;25.20;50.80;;;;;;9181780;19;20007;-69
2022/05/22 13:40:08;;;;;;;8.48;1.55;;;25.20;50.80;;;;;;9190783;19;20368;-69
2022/05/22 13:43:52;;;;;;;3.50;1.48;;;25.20;50.80;;;;;;9192452;19;20455;-68
2022/05/22 13:47:39;;;;;;;6.90;1.35;;;25.10;50.50;;;;;;9188999;19;20085;-70
2022/05/22 13:54:30;;;;;;;8.57;1.70;;;25.00;50.60;;;;;;9190889;19;20015;-69
2022/05/22 13:57:38;;;;;;;8.65;1.58;;;25.00;50.50;;;;;;9189740;19;20095;-71
2022/05/22 14:00:52;;;;;;;7.18;1.58;;;24.90;50.70;;;;;;9188866;19;20061;-69
2022/05/22 14:04:02;;;;;;;6.53;1.42;;;24.80;50.50;;;;;;9191249;19;20011;-69
2022/05/22 14:07:16;;;;;;;9.05;1.50;;;24.80;50.70;;;;;;9186457;19;20010;-69
2022/05/22 14:10:32;;;;;;;7.38;1.70;;;24.80;50.60;;;;;;9189755;19;20111;-71
2022/05/22 14:13:39;;;;;;;6.97;1.40;;;24.80;50.50;;;;;;9189023;19;20649;-69
2022/05/22 14:16:52;;;;;;;5.15;1.30;;;24.70;50.50;;;;;;9189326;19;20453;-69
2022/05/22 14:20:07;;;;;;;5.35;1.42;;;24.70;50.60;;;;;;9189787;19;20472;-70
2022/05/22 14:23:19;;;;;;;7.38;1.40;;;24.70;50.30;;;;;;9186940;19;20021;-68
2022/05/22 14:26:27;;;;;;;4.75;1.10;;;24.70;50.40;;;;;;9189142;19;20447;-71
2022/05/22 14:29:36;;;;;;;4.43;1.42;;;24.60;50.40;;;;;;9190523;19;20082;-72
2022/05/22 14:32:47;;;;;;;9.00;1.70;;;24.60;50.30;;;;;;9188416;19;20018;-70
2022/05/22 14:35:54;;;;;;;5.88;1.30;;;24.60;50.30;;;;;;9189474;19;20018;-70
2022/05/22 14:39:02;;;;;;;10.35;1.67;;;24.50;50.20;;;;;;9187830;19;20019;-69
2022/05/22 14:42:08;;;;;;;5.20;1.90;;;24.50;50.10;;;;;;9187629;19;20077;-70
2022/05/22 14:45:22;;;;;;;6.35;1.23;;;24.50;50.20;;;;;;9188615;19;20044;-69
2022/05/22 14:48:48;;;;;;;4.55;1.17;;;24.40;50.10;;;;;;9184785;19;20014;-69
2022/05/22 14:51:57;;;;;;;6.03;1.55;;;24.40;50.30;;;;;;9189701;19;20025;-69
2022/05/22 14:55:08;;;;;;;7.57;1.83;;;24.30;50.30;;;;;;9189996;19;20010;-69
2022/05/22 14:58:35;;;;;;;3.20;1.30;;;24.30;50.40;;;;;;9187499;19;20085;-69
2022/05/22 15:01:46;;;;;;;6.75;1.20;;;24.30;50.30;;;;;;9187483;19;20022;-69
2022/05/22 15:04:55;;;;;;;8.52;1.65;;;24.30;50.30;;;;;;9187446;19;20087;-69
2022/05/22 15:08:02;;;;;;;7.45;1.42;;;24.20;50.40;;;;;;9186692;19;20006;-69
2022/05/22 15:11:21;;;;;;;5.55;1.48;;;24.20;50.20;;;;;;9186562;19;20016;-69
2022/05/22 15:14:29;;;;;;;2.58;1.02;;;24.10;50.10;;;;;;9187678;19;20018;-69
2022/05/22 15:17:36;;;;;;;6.22;1.75;;;24.10;50.30;;;;;;9188042;19;20011;-69
2022/05/22 15:20:42;;;;;;;10.77;1.85;;;24.10;50.30;;;;;;9183071;19;20010;-69
2022/05/22 15:27:14;;;;;;;9.50;2.08;;;24.00;50.20;;;;;;9185779;19;20107;-69
2022/05/22 15:30:21;;;;;;;7.53;1.83;;;23.90;50.00;;;;;;9187536;19;20069;-69
2022/05/22 15:33:38;;;;;;;7.25;2.30;;;23.80;50.30;;;;;;9185320;19;20022;-69
2022/05/22 15:36:44;;;;;;;6.47;1.92;;;23.80;50.40;;;;;;9186871;19;20349;-69
2022/05/22 15:39:50;;;;;;;7.15;1.65;;;23.80;50.60;;;;;;9187974;19;20356;-69
2022/05/22 15:43:09;;;;;;;6.88;1.52;;;23.80;50.60;;;;;;9184530;19;20368;-69
2022/05/22 15:46:21;;;;;;;8.00;1.48;;;23.80;50.30;;;;;;9175477;19;20479;-69
2022/05/22 15:52:49;;;;;;;5.82;1.48;;;23.70;50.30;;;;;;9186041;19;20014;-69
2022/05/22 15:55:54;;;;;;;9.75;2.17;;;23.70;50.40;;;;;;9185224;19;20022;-69
2022/05/22 15:59:03;;;;;;;3.92;1.25;;;23.70;50.40;;;;;;9184910;19;20093;-68
2022/05/22 16:02:19;;;;;;;5.05;1.42;;;23.60;50.40;;;;;;9184569;19;20022;-68
2022/05/22 16:05:27;;;;;;;4.50;1.00;;;23.50;50.50;;;;;;9184937;19;20014;-68
2022/05/22 16:08:32;;;;;;;6.05;1.40;;;23.50;50.60;;;;;;9184878;19;20010;-69
2022/05/22 16:11:38;;;;;;;4.85;1.70;;;23.50;50.60;;;;;;9184790;19;20013;-68
2022/05/22 16:14:47;;;;;;;6.03;1.40;;;23.50;50.50;;;;;;9184394;19;20014;-69
2022/05/22 16:17:56;;;;;;;4.90;1.55;;;23.40;50.30;;;;;;9183790;19;20043;-68
2022/05/22 16:21:02;;;;;;;7.25;2.00;;;23.40;50.40;;;;;;9180518;19;20496;-68
2022/05/22 16:24:09;;;;;;;5.25;1.65;;;23.40;50.50;;;;;;9184586;19;20018;-68
2022/05/22 16:27:15;;;;;;;6.25;1.50;;;23.40;50.60;;;;;;9184541;19;20022;-69
2022/05/22 16:30:31;;;;;;;8.90;1.55;;;23.30;50.70;;;;;;9184151;19;20011;-68
2022/05/22 16:33:38;;;;;;;5.70;1.75;;;23.30;50.60;;;;;;9184505;19;20014;-68
2022/05/22 16:36:43;;;;;;;7.63;2.13;;;23.30;50.50;;;;;;9183995;19;20014;-68
2022/05/22 16:39:48;;;;;;;7.68;1.50;;;23.20;50.50;;;;;;9183579;19;20026;-68
2022/05/22 16:42:53;;;;;;;6.68;1.27;;;23.20;50.60;;;;;;9185319;19;20011;-68
2022/05/22 16:46:04;;;;;;;4.97;1.55;;;23.10;50.60;;;;;;9183046;19;20450;-68
2022/05/22 16:55:47;;;;;;;6.30;1.65;;;23.00;50.60;;;;;;9185225;19;20017;-68
2022/05/22 16:58:53;;;;;;;7.72;1.63;;;22.90;50.70;;;;;;9183405;19;20011;-67
2022/05/22 17:02:01;;;;;;;9.70;1.60;;;22.90;50.70;;;;;;9183780;19;20503;-67
2022/05/22 17:05:07;;;;;;;7.53;1.58;;;22.90;50.60;;;;;;9182579;19;20026;-68
2022/05/22 17:08:17;;;;;;;5.95;1.83;;;22.80;50.60;;;;;;9181018;19;20413;-67
2022/05/22 17:11:29;;;;;;;4.95;1.50;;;22.70;50.60;;;;;;9185450;19;20013;-68
2022/05/22 17:14:35;;;;;;;4.85;1.10;;;22.70;50.80;;;;;;9191971;19;20483;-67
2022/05/22 17:17:43;;;;;;;9.82;1.60;;;22.60;50.90;;;;;;9191274;19;20014;-69